Grande-Entree, Canada
Current Conditions -  °F | °C
As of 11:00 PM on Monday 20 Oct 2014 (Local Time) from CYGR Reporting Station
Broken Clouds Broken Clouds  
Wind Chill: 35°   Ceiling: 3600
Heat Index: 45°   Visibility: 15mi
Dew Point: 34°   Wind: 31mph
Humidity: 66%   Direction: 270°W
Pressure: 29.79"   Gusts: 40mph
Location:  47.55°N, 61.57°W
Report Text: CYGR 210200Z 27027G35KT 15SM BKN036 07/01 A2979 RMK SC7 LAST OBS/NEXT 210900 UTC SLP087
Loading
Personal Weather Stations






























Interactive Weather Map
Tropical Storm Tracking
New forecast layout! Learn more

10-Day Weather Forecast

Advertisements
Track Severe Weather on mobile